Time;durP1;ratioP1;P1;durP2;ratioP2;P2;SDS_P1;SDS_P2;PMS_P1;PMS_P2;Temp;Humidity;BMP_temperature;BMP_pressure;BME280_temperature;BME280_humidity;BME280_pressure;Samples;Min_cycle;Max_cycle;Signal;HPM_P1;HPM_P2
2022/07/01 00:01:33;;;;;;;5.40;2.30;;;21.40;59.50;;;;;;20673;6863;116979;31
2022/07/01 00:03:59;;;;;;;2.70;2.50;;;21.10;60.30;;;;;;20458;6863;278738;31
2022/07/01 00:06:24;;;;;;;3.37;1.90;;;21.10;61.00;;;;;;20663;6863;117010;31
2022/07/01 00:08:50;;;;;;;2.58;2.05;;;20.90;61.40;;;;;;20678;6863;117192;31
2022/07/01 00:11:17;;;;;;;2.28;1.90;;;20.60;62.20;;;;;;20456;6863;278832;31
2022/07/01 00:13:42;;;;;;;3.27;1.70;;;20.60;60.10;;;;;;20663;6863;117597;31
2022/07/01 00:16:08;;;;;;;5.60;1.83;;;20.50;60.60;;;;;;20674;6863;117235;31
2022/07/01 00:18:33;;;;;;;2.28;2.08;;;20.20;61.20;;;;;;20466;6863;282038;31
2022/07/01 00:21:01;;;;;;;1.57;1.57;;;20.30;60.60;;;;;;20671;6863;116969;31
2022/07/01 00:23:24;;;;;;;1.80;1.70;;;20.20;61.10;;;;;;20664;6863;118530;31
2022/07/01 00:25:50;;;;;;;2.03;1.77;;;20.00;62.10;;;;;;20451;6863;309342;31
2022/07/01 00:28:16;;;;;;;2.00;1.90;;;20.20;61.70;;;;;;20467;6863;337497;31
2022/07/01 00:30:41;;;;;;;1.80;1.60;;;20.50;60.30;;;;;;20674;6863;117007;31
2022/07/01 00:33:07;;;;;;;2.03;1.70;;;20.40;60.40;;;;;;20685;6863;116971;31
2022/07/01 00:35:32;;;;;;;2.60;1.70;;;20.10;61.30;;;;;;20464;6863;278435;31
2022/07/01 00:37:58;;;;;;;1.70;1.60;;;20.20;61.60;;;;;;20461;6863;307520;31
2022/07/01 00:40:23;;;;;;;1.58;1.48;;;20.50;60.80;;;;;;20680;6863;117518;31
2022/07/01 00:42:49;;;;;;;1.23;1.12;;;20.40;60.90;;;;;;20468;6863;308915;31
2022/07/01 00:45:15;;;;;;;1.90;1.30;;;20.40;57.90;;;;;;20462;6863;309278;31
2022/07/01 00:47:40;;;;;;;1.23;1.15;;;20.50;57.50;;;;;;20652;6863;120659;31
2022/07/01 00:50:08;;;;;;;1.15;1.05;;;20.20;58.70;;;;;;20455;6863;301445;31
2022/07/01 00:52:34;;;;;;;1.07;0.97;;;20.10;57.20;;;;;;20613;6863;117844;31
2022/07/01 00:54:59;;;;;;;1.00;1.00;;;19.90;58.50;;;;;;20678;6863;117808;31
2022/07/01 00:57:27;;;;;;;1.00;0.90;;;19.50;60.00;;;;;;20442;6863;311910;31
2022/07/01 00:59:52;;;;;;;1.07;1.07;;;19.60;60.10;;;;;;20413;6862;307657;31
2022/07/01 01:02:18;;;;;;;1.43;1.20;;;19.80;59.70;;;;;;20670;6863;117109;31
2022/07/01 01:04:43;;;;;;;2.05;1.08;;;19.70;60.10;;;;;;20469;6863;307386;31
2022/07/01 01:07:09;;;;;;;1.08;0.80;;;19.70;59.70;;;;;;20446;6863;309694;31
2022/07/01 01:09:34;;;;;;;1.83;0.90;;;19.90;58.80;;;;;;20458;6863;311533;31
2022/07/01 01:12:00;;;;;;;0.97;0.80;;;20.10;57.50;;;;;;20654;6863;118129;31
2022/07/01 01:14:26;;;;;;;1.40;0.93;;;19.90;58.00;;;;;;20456;6863;278610;31
2022/07/01 01:16:51;;;;;;;1.10;1.10;;;19.80;56.60;;;;;;20453;6863;342708;31
2022/07/01 01:19:17;;;;;;;1.00;0.90;;;20.00;57.10;;;;;;20463;6863;308888;31
2022/07/01 01:21:42;;;;;;;2.00;0.82;;;20.20;57.30;;;;;;20642;6863;124031;31
2022/07/01 01:24:08;;;;;;;1.17;0.88;;;20.00;57.80;;;;;;20681;6863;117244;31
2022/07/01 01:26:35;;;;;;;3.50;0.90;;;19.70;59.10;;;;;;20666;6863;117293;31
2022/07/01 01:29:00;;;;;;;1.17;0.93;;;19.50;60.10;;;;;;20452;6863;312831;31
2022/07/01 01:31:30;;;;;;;1.80;0.93;;;19.70;59.50;;;;;;20442;6863;308825;31
2022/07/01 01:33:55;;;;;;;1.53;0.90;;;20.10;57.40;;;;;;20649;6863;117244;31
2022/07/01 01:36:21;;;;;;;0.70;0.70;;;20.00;57.90;;;;;;20662;6863;117194;31
2022/07/01 01:38:46;;;;;;;3.17;0.90;;;19.70;58.60;;;;;;20682;6863;116894;31
2022/07/01 01:41:12;;;;;;;2.97;1.10;;;19.50;59.80;;;;;;20672;6863;117441;31
2022/07/01 01:43:37;;;;;;;1.50;1.05;;;19.40;60.90;;;;;;20438;6863;279453;31
2022/07/01 01:46:03;;;;;;;4.75;1.23;;;19.60;58.90;;;;;;20668;6863;118088;31
2022/07/01 01:48:29;;;;;;;1.20;0.85;;;19.70;59.40;;;;;;20458;6863;308018;31
2022/07/01 01:50:54;;;;;;;1.23;1.00;;;19.90;59.20;;;;;;20483;6863;287052;31
2022/07/01 01:53:20;;;;;;;0.80;0.80;;;20.20;57.00;;;;;;20677;6863;116981;31
2022/07/01 01:55:45;;;;;;;1.00;0.90;;;20.00;57.40;;;;;;20439;6863;277811;31
2022/07/01 01:58:11;;;;;;;1.83;0.75;;;20.10;56.90;;;;;;20454;6863;315061;31
2022/07/01 02:00:37;;;;;;;0.70;0.70;;;20.30;55.30;;;;;;20662;6863;116990;31
2022/07/01 02:03:02;;;;;;;0.85;0.80;;;20.10;56.30;;;;;;20682;6863;116988;31
2022/07/01 02:05:30;;;;;;;0.70;0.70;;;19.80;57.50;;;;;;20656;6863;118107;31
2022/07/01 02:07:54;;;;;;;2.00;0.70;;;19.60;58.60;;;;;;20651;6863;121152;31
2022/07/01 02:10:20;;;;;;;1.30;0.83;;;19.40;59.50;;;;;;20674;6861;120096;31
2022/07/01 02:12:47;;;;;;;2.15;0.90;;;19.20;60.00;;;;;;20481;6862;278166;31
2022/07/01 02:15:11;;;;;;;3.30;0.90;;;19.50;59.00;;;;;;20489;6863;336753;31
2022/07/01 02:17:37;;;;;;;0.73;0.73;;;19.80;58.00;;;;;;20693;6863;121135;31
2022/07/01 02:20:02;;;;;;;2.40;1.05;;;19.70;58.40;;;;;;20448;6878;280807;31
2022/07/01 02:22:28;;;;;;;2.28;0.80;;;19.80;57.90;;;;;;20485;6863;308269;31
2022/07/01 02:24:53;;;;;;;1.40;1.08;;;20.00;57.00;;;;;;20681;6863;120239;31
2022/07/01 02:27:19;;;;;;;1.33;0.80;;;19.80;57.80;;;;;;20456;6863;309269;31
2022/07/01 02:29:45;;;;;;;1.35;0.77;;;19.80;57.80;;;;;;20648;6863;118340;31
2022/07/01 02:32:11;;;;;;;0.73;0.70;;;19.70;58.60;;;;;;20671;6863;121094;31
2022/07/01 02:34:37;;;;;;;1.57;0.60;;;19.40;59.40;;;;;;20672;6863;117180;31
2022/07/01 02:37:03;;;;;;;0.95;0.60;;;19.20;60.10;;;;;;20668;6863;116249;31
2022/07/01 02:39:28;;;;;;;2.73;0.70;;;19.00;60.40;;;;;;20668;6863;116983;31
2022/07/01 02:44:39;;;;;;;0.60;0.60;;;19.20;58.60;;;;;;20694;6863;117407;31
2022/07/01 02:47:05;;;;;;;0.70;0.70;;;19.20;59.10;;;;;;20477;6863;293300;31
2022/07/01 02:49:31;;;;;;;0.77;0.70;;;19.40;58.20;;;;;;20486;6863;302621;31
2022/07/01 02:51:56;;;;;;;0.90;0.60;;;19.70;56.80;;;;;;20662;6863;118842;31
2022/07/01 02:54:22;;;;;;;0.60;0.60;;;19.60;57.60;;;;;;20688;6863;116339;31
2022/07/01 02:56:47;;;;;;;2.37;0.80;;;19.30;58.50;;;;;;20668;6863;117021;31
2022/07/01 02:59:13;;;;;;;0.73;0.73;;;19.10;59.40;;;;;;20463;6863;278587;31
2022/07/01 03:01:38;;;;;;;1.40;0.90;;;19.30;58.00;;;;;;20447;6863;303796;31
2022/07/01 03:04:04;;;;;;;0.80;0.80;;;19.60;57.30;;;;;;20678;6863;117654;31
2022/07/01 03:06:29;;;;;;;4.43;0.80;;;19.50;57.90;;;;;;20698;6863;116937;31
2022/07/01 03:08:57;;;;;;;0.93;0.60;;;19.20;58.80;;;;;;20685;6863;117271;31
2022/07/01 03:11:22;;;;;;;1.23;0.73;;;19.00;59.50;;;;;;20457;6863;307811;31
2022/07/01 03:13:47;;;;;;;1.30;0.70;;;19.20;58.30;;;;;;20658;6863;119398;31
2022/07/01 03:16:13;;;;;;;1.50;1.00;;;19.20;58.70;;;;;;20464;6863;279870;31
2022/07/01 03:18:38;;;;;;;3.05;0.75;;;19.30;58.20;;;;;;20682;6863;122003;31
2022/07/01 03:21:04;;;;;;;0.68;0.68;;;19.30;58.50;;;;;;20666;6863;116893;31
2022/07/01 03:23:30;;;;;;;0.70;0.70;;;19.00;59.20;;;;;;20479;6862;277336;31
2022/07/01 03:25:55;;;;;;;0.70;0.70;;;19.20;58.00;;;;;;20670;6863;117562;31
2022/07/01 03:28:21;;;;;;;0.80;0.80;;;19.20;58.60;;;;;;20491;6863;306869;31
2022/07/01 03:30:46;;;;;;;1.90;0.73;;;19.40;57.40;;;;;;20762;6863;117272;31
2022/07/01 03:33:12;;;;;;;0.60;0.60;;;19.30;57.60;;;;;;20751;6863;120358;31
2022/07/01 03:35:45;;;;;;;1.27;0.98;;;19.10;58.60;;;;;;20462;6863;307037;31
2022/07/01 03:38:07;;;;;;;0.60;0.60;;;19.30;57.20;;;;;;20664;6863;117110;31
2022/07/01 03:40:32;;;;;;;0.70;0.70;;;19.20;57.70;;;;;;20678;6863;118933;31
2022/07/01 03:42:57;;;;;;;0.90;0.80;;;19.00;58.60;;;;;;20464;6863;277819;31
2022/07/01 03:45:23;;;;;;;1.07;0.87;;;19.20;58.20;;;;;;20683;6863;117649;31
2022/07/01 03:47:48;;;;;;;1.03;0.90;;;19.20;58.60;;;;;;20458;6863;284394;31
2022/07/01 03:50:14;;;;;;;1.55;0.90;;;19.30;57.60;;;;;;20460;6863;308139;31
2022/07/01 03:52:41;;;;;;;3.20;1.00;;;19.50;57.30;;;;;;20466;6863;298559;31
2022/07/01 03:55:05;;;;;;;1.30;0.80;;;19.70;56.60;;;;;;20464;6863;328489;31
2022/07/01 03:57:31;;;;;;;0.73;0.73;;;19.90;56.50;;;;;;20681;6863;117249;31
2022/07/01 03:59:58;;;;;;;1.10;0.88;;;19.70;57.20;;;;;;20450;6863;428759;31
2022/07/01 04:02:23;;;;;;;1.60;0.90;;;19.70;57.20;;;;;;20461;6863;310672;31
2022/07/01 04:04:50;;;;;;;0.80;0.80;;;19.80;56.40;;;;;;20685;6863;117448;31
2022/07/01 04:07:15;;;;;;;0.67;0.67;;;19.60;57.00;;;;;;20674;6863;116597;31
2022/07/01 04:09:41;;;;;;;1.30;1.05;;;19.30;58.00;;;;;;20665;6863;118158;31
2022/07/01 04:12:08;;;;;;;2.70;1.08;;;19.00;58.80;;;;;;20456;6863;336402;31
2022/07/01 04:14:32;;;;;;;0.80;0.80;;;19.20;58.40;;;;;;20672;6863;117493;31
2022/07/01 04:16:58;;;;;;;1.60;0.60;;;19.20;58.80;;;;;;20686;6863;117057;31
2022/07/01 04:19:23;;;;;;;1.98;0.80;;;19.00;59.30;;;;;;20682;6863;121656;31
2022/07/01 04:24:34;;;;;;;0.93;0.93;;;18.70;60.40;;;;;;20454;6863;312254;31
2022/07/01 04:27:00;;;;;;;1.17;1.07;;;19.00;59.00;;;;;;20660;6863;117342;31
2022/07/01 04:29:25;;;;;;;2.03;1.00;;;19.00;59.30;;;;;;20458;6863;293275;31
2022/07/01 04:31:51;;;;;;;0.80;0.80;;;19.20;58.40;;;;;;20657;6863;120125;31
2022/07/01 04:34:18;;;;;;;0.90;0.90;;;19.20;59.00;;;;;;20696;6862;67742;31
2022/07/01 04:36:42;;;;;;;1.13;0.90;;;19.00;59.70;;;;;;20460;6863;308850;31
2022/07/01 04:39:08;;;;;;;0.95;0.93;;;19.20;59.20;;;;;;20684;6863;117297;31
2022/07/01 04:44:18;;;;;;;1.10;1.10;;;19.40;58.90;;;;;;20468;6863;279186;31
2022/07/01 04:46:45;;;;;;;2.42;1.30;;;19.70;58.10;;;;;;20460;6863;309714;31
2022/07/01 04:49:11;;;;;;;1.90;1.00;;;19.90;57.90;;;;;;20677;6863;120610;31
2022/07/01 04:51:36;;;;;;;1.53;1.27;;;19.70;57.90;;;;;;20463;6863;336818;31
2022/07/01 04:54:02;;;;;;;2.27;0.93;;;19.80;57.20;;;;;;20715;6863;68699;31
2022/07/01 04:56:29;;;;;;;1.35;1.15;;;19.60;57.80;;;;;;20462;6863;308425;31
2022/07/01 04:58:57;;;;;;;1.98;1.17;;;19.70;57.70;;;;;;20494;6863;335640;31
2022/07/01 05:01:23;;;;;;;1.60;1.13;;;19.80;57.10;;;;;;20471;6863;307312;31
2022/07/01 05:03:48;;;;;;;2.15;1.60;;;20.00;56.90;;;;;;20459;6863;306630;31
2022/07/01 05:06:14;;;;;;;2.60;1.48;;;20.00;57.00;;;;;;20463;6863;339100;31
2022/07/01 05:08:39;;;;;;;4.77;1.20;;;20.10;57.60;;;;;;20666;6863;117771;31
2022/07/01 05:11:06;;;;;;;1.37;1.37;;;19.80;58.00;;;;;;20674;6863;117287;31
2022/07/01 05:13:31;;;;;;;1.40;1.30;;;19.40;58.90;;;;;;20465;6863;311238;31
2022/07/01 05:15:56;;;;;;;1.48;1.15;;;19.50;58.70;;;;;;20669;6863;117105;31
2022/07/01 05:23:53;;;;;;;1.37;1.30;;;19.10;59.20;;;;;;20673;6863;118209;31
2022/07/01 05:26:20;;;;;;;1.15;0.95;;;19.00;59.70;;;;;;20711;6863;117321;31
2022/07/01 05:28:47;;;;;;;1.10;1.05;;;18.70;60.10;;;;;;20508;6863;278820;31
2022/07/01 05:31:12;;;;;;;1.20;1.10;;;18.80;59.90;;;;;;20496;6863;309264;31
2022/07/01 05:33:38;;;;;;;1.10;1.10;;;19.10;59.20;;;;;;20482;6863;307653;31
2022/07/01 05:36:03;;;;;;;1.30;1.00;;;19.40;58.40;;;;;;20716;6863;120370;31
2022/07/01 05:38:29;;;;;;;1.50;1.40;;;19.20;59.00;;;;;;20711;6863;116187;31
2022/07/01 05:41:00;;;;;;;1.20;1.20;;;18.90;59.90;;;;;;20495;6863;309250;31
2022/07/01 05:43:25;;;;;;;1.37;1.27;;;19.00;59.70;;;;;;20715;6863;67883;31
2022/07/01 05:45:51;;;;;;;1.10;1.10;;;19.00;60.00;;;;;;20682;6861;121702;31
2022/07/01 05:48:16;;;;;;;1.27;1.20;;;18.80;60.40;;;;;;20489;6863;307766;31
2022/07/01 05:50:43;;;;;;;2.15;1.10;;;18.90;59.40;;;;;;20677;6863;117692;31
2022/07/01 05:53:07;;;;;;;1.23;1.17;;;18.90;59.40;;;;;;20465;6863;309028;31
2022/07/01 05:55:33;;;;;;;0.90;0.90;;;19.00;59.50;;;;;;20472;6863;336147;31
2022/07/01 05:58:01;;;;;;;1.33;1.05;;;19.20;59.00;;;;;;20458;6863;278475;31
2022/07/01 06:00:25;;;;;;;1.52;0.90;;;19.40;58.10;;;;;;20458;6863;341595;31
2022/07/01 06:02:52;;;;;;;1.00;0.70;;;19.50;58.30;;;;;;20705;6863;117244;31
2022/07/01 06:05:17;;;;;;;0.80;0.80;;;19.30;58.80;;;;;;20722;6863;117411;31
2022/07/01 06:07:43;;;;;;;1.07;0.73;;;18.90;59.50;;;;;;20693;6863;116999;31
2022/07/01 06:10:12;;;;;;;0.90;0.90;;;18.70;60.30;;;;;;20493;6863;307015;31
2022/07/01 06:12:39;;;;;;;1.73;1.20;;;18.90;59.70;;;;;;20491;6863;321280;31
2022/07/01 06:15:08;;;;;;;1.60;0.80;;;19.10;59.50;;;;;;20707;6863;116915;31
2022/07/01 06:17:33;;;;;;;4.33;1.00;;;19.00;59.70;;;;;;20700;6863;121476;31
2022/07/01 06:19:59;;;;;;;0.93;0.90;;;18.80;60.40;;;;;;20688;6863;120146;31
2022/07/01 06:22:25;;;;;;;0.93;0.93;;;18.60;60.90;;;;;;20502;6863;317002;31
2022/07/01 06:24:50;;;;;;;2.67;1.13;;;18.80;60.60;;;;;;20708;6863;116220;31
2022/07/01 06:27:17;;;;;;;0.90;0.90;;;18.80;60.30;;;;;;20709;6863;117832;31
2022/07/01 06:29:44;;;;;;;0.80;0.80;;;18.70;60.70;;;;;;20504;6863;301102;31
2022/07/01 06:32:09;;;;;;;0.70;0.70;;;18.90;59.70;;;;;;20487;6863;298210;31
2022/07/01 06:34:36;;;;;;;0.80;0.80;;;19.20;57.50;;;;;;20708;6863;116688;31
2022/07/01 06:37:03;;;;;;;0.90;0.70;;;19.10;57.80;;;;;;20504;6863;277765;31
2022/07/01 06:39:27;;;;;;;0.60;0.60;;;19.30;57.50;;;;;;20723;6863;116548;31
2022/07/01 06:41:53;;;;;;;0.63;0.63;;;19.20;58.00;;;;;;20707;6863;118470;31
2022/07/01 06:44:19;;;;;;;1.70;0.80;;;18.90;58.80;;;;;;20510;6863;308543;31
2022/07/01 06:46:44;;;;;;;0.60;0.60;;;19.00;58.20;;;;;;20728;6863;117607;31
2022/07/01 06:49:09;;;;;;;0.50;0.50;;;18.90;58.40;;;;;;20515;6863;307345;31
2022/07/01 06:51:35;;;;;;;0.52;0.52;;;19.10;58.50;;;;;;20710;6863;116992;31
2022/07/01 06:54:00;;;;;;;0.68;0.68;;;19.10;58.80;;;;;;20465;6863;306895;31
2022/07/01 06:56:26;;;;;;;0.80;0.80;;;19.20;57.00;;;;;;20717;6861;116990;31
2022/07/01 06:58:52;;;;;;;1.27;0.70;;;19.10;57.30;;;;;;20711;6862;116887;31
2022/07/01 07:01:17;;;;;;;0.67;0.67;;;18.80;57.70;;;;;;20690;6863;116955;31
2022/07/01 07:03:43;;;;;;;0.90;0.70;;;18.60;58.50;;;;;;20478;6863;295500;31
2022/07/01 07:06:08;;;;;;;0.60;0.60;;;18.70;58.10;;;;;;20695;6863;122749;31
2022/07/01 07:08:34;;;;;;;0.80;0.67;;;18.70;58.40;;;;;;20484;6863;309818;31
2022/07/01 07:11:02;;;;;;;0.80;0.80;;;19.00;58.60;;;;;;20692;6863;117236;31
2022/07/01 07:13:26;;;;;;;2.30;0.80;;;18.90;58.80;;;;;;20467;6863;281322;31
2022/07/01 07:15:52;;;;;;;0.80;0.80;;;19.10;58.70;;;;;;20472;6863;278539;31
2022/07/01 07:18:17;;;;;;;0.63;0.60;;;19.30;58.60;;;;;;20691;6863;117700;31
2022/07/01 07:20:43;;;;;;;0.70;0.70;;;19.30;58.90;;;;;;20691;6863;117474;31
2022/07/01 07:23:11;;;;;;;0.60;0.60;;;19.00;59.40;;;;;;20484;6863;338019;31
2022/07/01 07:25:37;;;;;;;1.70;0.80;;;19.20;57.50;;;;;;20484;6863;296519;31
2022/07/01 07:28:02;;;;;;;1.40;0.63;;;19.50;56.30;;;;;;20302;6863;308147;31
2022/07/01 07:30:28;;;;;;;0.70;0.47;;;19.70;55.40;;;;;;20477;6863;337159;31
2022/07/01 07:32:54;;;;;;;0.60;0.60;;;19.80;55.30;;;;;;20698;6863;116983;31
2022/07/01 07:35:19;;;;;;;0.82;0.50;;;19.60;55.90;;;;;;20481;6863;279429;31
2022/07/01 07:37:45;;;;;;;0.50;0.40;;;19.50;55.40;;;;;;20471;6863;301752;31
2022/07/01 07:40:12;;;;;;;1.10;0.50;;;19.60;55.70;;;;;;20484;6863;307714;31
2022/07/01 07:42:36;;;;;;;0.50;0.50;;;19.70;55.30;;;;;;20475;6863;336048;31
2022/07/01 07:45:02;;;;;;;0.97;0.37;;;19.80;55.10;;;;;;20697;6863;116167;31
2022/07/01 07:47:27;;;;;;;1.20;0.37;;;19.50;55.60;;;;;;20493;6863;307133;31
2022/07/01 07:49:53;;;;;;;0.87;0.30;;;19.30;55.00;;;;;;20678;6863;121348;31
2022/07/01 07:52:18;;;;;;;0.47;0.35;;;19.00;55.70;;;;;;20472;6863;278599;31
2022/07/01 07:54:44;;;;;;;0.53;0.40;;;19.00;54.90;;;;;;20494;6863;281367;31
2022/07/01 07:57:11;;;;;;;0.40;0.40;;;19.10;55.00;;;;;;20483;6863;278544;31
2022/07/01 07:59:36;;;;;;;0.40;0.40;;;19.30;54.90;;;;;;20479;6863;310564;31
2022/07/01 08:02:02;;;;;;;0.32;0.32;;;19.30;54.70;;;;;;20477;6863;308026;31
2022/07/01 08:04:28;;;;;;;0.77;0.37;;;19.40;54.70;;;;;;20692;6863;117039;31
2022/07/01 08:06:53;;;;;;;0.40;0.40;;;19.10;55.50;;;;;;20693;6863;116941;31
2022/07/01 08:09:19;;;;;;;0.30;0.30;;;18.80;56.70;;;;;;20701;6862;117628;31
2022/07/01 08:11:44;;;;;;;0.40;0.40;;;18.60;57.50;;;;;;20461;6863;340379;31
2022/07/01 08:14:10;;;;;;;0.30;0.30;;;18.80;57.30;;;;;;20480;6863;308448;31
2022/07/01 08:16:35;;;;;;;0.27;0.27;;;19.20;56.60;;;;;;20694;6863;119302;31
2022/07/01 08:19:03;;;;;;;0.75;0.70;;;19.20;56.80;;;;;;20688;6863;117257;31
2022/07/01 08:21:28;;;;;;;0.77;0.40;;;19.00;57.30;;;;;;20687;6863;117396;31
2022/07/01 08:23:54;;;;;;;0.40;0.40;;;18.90;58.00;;;;;;20673;6863;117361;31
2022/07/01 08:26:19;;;;;;;1.00;0.50;;;18.80;58.10;;;;;;20700;6863;117487;31
2022/07/01 08:28:45;;;;;;;0.70;0.60;;;18.70;58.40;;;;;;20486;6863;279285;31
2022/07/01 08:31:10;;;;;;;0.90;0.50;;;18.90;58.40;;;;;;20482;6863;277536;31
2022/07/01 08:33:39;;;;;;;0.40;0.40;;;19.30;56.90;;;;;;20495;6863;278786;31
2022/07/01 08:36:08;;;;;;;0.60;0.60;;;19.70;56.80;;;;;;20492;6863;311775;31
2022/07/01 08:38:33;;;;;;;0.60;0.60;;;19.90;56.20;;;;;;20483;6863;278841;31
2022/07/01 08:41:00;;;;;;;1.00;0.43;;;20.00;54.90;;;;;;20470;6863;307406;31
2022/07/01 08:43:24;;;;;;;0.40;0.40;;;20.10;54.60;;;;;;20474;6863;279068;31
2022/07/01 08:45:53;;;;;;;0.40;0.40;;;20.20;54.90;;;;;;20462;6863;307670;31
2022/07/01 08:48:18;;;;;;;1.90;0.53;;;20.30;54.70;;;;;;20684;6863;117135;31
2022/07/01 08:50:44;;;;;;;0.40;0.40;;;20.00;55.40;;;;;;20473;6863;308972;31
2022/07/01 08:53:09;;;;;;;0.47;0.47;;;19.90;56.20;;;;;;20477;6863;280585;31
2022/07/01 08:58:21;;;;;;;0.70;0.70;;;20.10;55.80;;;;;;20467;6863;308277;31
2022/07/01 09:00:46;;;;;;;1.62;0.70;;;20.30;55.80;;;;;;20467;6863;339203;31
2022/07/01 09:03:15;;;;;;;0.93;0.60;;;20.40;54.60;;;;;;20465;6863;307542;31
2022/07/01 09:05:41;;;;;;;1.13;0.90;;;20.40;54.50;;;;;;20673;6863;117082;31
2022/07/01 09:08:06;;;;;;;0.50;0.50;;;20.20;55.20;;;;;;20454;6863;302208;31
2022/07/01 09:10:36;;;;;;;0.60;0.40;;;20.10;53.90;;;;;;20682;6863;116984;31
2022/07/01 09:12:58;;;;;;;0.43;0.43;;;19.80;54.40;;;;;;20666;6863;120712;31
2022/07/01 09:15:27;;;;;;;1.00;0.60;;;19.30;55.30;;;;;;20392;6863;286099;31
2022/07/01 09:18:09;;;;;;;0.60;0.60;;;19.30;56.10;;;;;;20669;6863;127232;31
2022/07/01 09:20:35;;;;;;;0.55;0.40;;;19.20;56.60;;;;;;20463;6862;337078;31
2022/07/01 09:23:00;;;;;;;0.50;0.50;;;19.30;56.80;;;;;;20483;6863;319411;31
2022/07/01 09:25:28;;;;;;;1.20;0.70;;;19.50;56.30;;;;;;20480;6863;278882;31
2022/07/01 09:28:09;;;;;;;0.60;0.60;;;19.70;56.80;;;;;;20669;6863;119878;31
2022/07/01 09:30:34;;;;;;;0.60;0.60;;;19.40;57.10;;;;;;20685;6863;116965;31
2022/07/01 09:33:22;;;;;;;0.50;0.50;;;19.00;58.00;;;;;;20657;6863;117417;31
2022/07/01 09:35:49;;;;;;;0.80;0.77;;;18.80;58.80;;;;;;20434;6863;327564;31
2022/07/01 09:38:13;;;;;;;0.55;0.55;;;19.00;58.30;;;;;;20683;6863;118440;31
2022/07/01 09:40:51;;;;;;;0.60;0.60;;;18.90;58.20;;;;;;20477;6863;308095;31
2022/07/01 09:43:30;;;;;;;0.40;0.40;;;19.00;58.20;;;;;;20687;6863;117688;31
2022/07/01 09:46:08;;;;;;;0.40;0.40;;;18.90;58.50;;;;;;20670;6863;117234;31
2022/07/01 09:48:37;;;;;;;2.23;0.60;;;18.60;59.20;;;;;;20684;6863;117112;31
2022/07/01 09:51:02;;;;;;;0.70;0.50;;;18.40;59.60;;;;;;20690;6863;117016;31
2022/07/01 09:53:28;;;;;;;0.75;0.50;;;18.20;60.00;;;;;;20480;6863;308469;31
2022/07/01 09:55:54;;;;;;;1.17;0.50;;;18.40;59.90;;;;;;20459;6863;292791;31
2022/07/01 09:58:19;;;;;;;0.60;0.60;;;18.80;60.00;;;;;;20487;6863;278855;31
2022/07/01 10:00:45;;;;;;;1.10;0.50;;;19.20;59.20;;;;;;20462;6863;294585;31
2022/07/01 10:03:10;;;;;;;0.47;0.47;;;19.40;57.70;;;;;;20690;6863;118501;31
2022/07/01 10:05:56;;;;;;;0.50;0.50;;;19.40;58.20;;;;;;20480;6863;278590;31
2022/07/01 10:08:48;;;;;;;0.70;0.70;;;19.40;57.90;;;;;;20456;6863;308526;31
2022/07/01 10:11:50;;;;;;;0.53;0.53;;;19.70;57.80;;;;;;20481;6863;277702;31
2022/07/01 10:14:16;;;;;;;0.53;0.53;;;19.90;56.60;;;;;;20703;6863;118512;31
2022/07/01 10:16:41;;;;;;;0.50;0.50;;;19.70;57.30;;;;;;20697;6863;117418;31
2022/07/01 10:19:20;;;;;;;0.95;0.60;;;19.40;58.00;;;;;;20476;6863;310623;31
2022/07/01 10:21:45;;;;;;;0.82;0.77;;;19.60;55.70;;;;;;20456;6863;303957;31
2022/07/01 10:24:14;;;;;;;1.50;0.60;;;19.90;54.70;;;;;;20460;6863;307475;31
2022/07/01 10:26:39;;;;;;;0.50;0.50;;;20.10;56.50;;;;;;20451;6863;307284;31
2022/07/01 10:29:07;;;;;;;0.57;0.57;;;20.40;55.60;;;;;;20442;6863;281153;31
2022/07/01 10:31:37;;;;;;;0.60;0.60;;;20.50;56.40;;;;;;20457;6862;279902;31
2022/07/01 10:34:04;;;;;;;0.90;0.60;;;20.70;56.30;;;;;;20672;6862;117700;31
2022/07/01 10:36:33;;;;;;;0.40;0.40;;;20.50;56.70;;;;;;20678;6863;117171;31
2022/07/01 10:39:08;;;;;;;0.57;0.57;;;20.30;57.40;;;;;;20662;6863;116938;31
2022/07/01 10:41:33;;;;;;;0.73;0.50;;;20.10;57.80;;;;;;20673;6863;117175;31
2022/07/01 10:44:00;;;;;;;0.50;0.50;;;20.00;58.10;;;;;;20655;6863;117666;31
2022/07/01 10:46:44;;;;;;;0.47;0.30;;;19.80;58.10;;;;;;20663;6863;116941;31
2022/07/01 10:49:13;;;;;;;0.50;0.50;;;19.80;58.30;;;;;;20461;6863;277807;31
2022/07/01 10:51:51;;;;;;;0.60;0.60;;;20.10;56.70;;;;;;20435;6863;309907;31
2022/07/01 10:54:36;;;;;;;0.60;0.60;;;20.50;55.10;;;;;;20678;6863;117626;31
2022/07/01 10:57:15;;;;;;;0.43;0.43;;;20.50;55.30;;;;;;20443;6863;118191;31
2022/07/01 10:59:41;;;;;;;0.43;0.43;;;20.30;55.70;;;;;;20458;6863;279958;31
2022/07/01 11:02:19;;;;;;;0.50;0.50;;;20.40;54.60;;;;;;20675;6863;119954;31
2022/07/01 11:04:45;;;;;;;0.37;0.37;;;20.40;55.20;;;;;;20472;6863;278652;31
2022/07/01 11:07:10;;;;;;;0.60;0.60;;;20.60;54.60;;;;;;20456;6863;308420;31
2022/07/01 11:09:36;;;;;;;0.40;0.40;;;20.80;53.40;;;;;;20456;6863;328748;31
2022/07/01 11:12:01;;;;;;;0.50;0.30;;;21.00;53.40;;;;;;20677;6863;117457;31
2022/07/01 11:14:27;;;;;;;0.50;0.50;;;20.80;54.00;;;;;;20702;6863;117290;31
2022/07/01 11:16:52;;;;;;;0.43;0.43;;;20.50;55.00;;;;;;20497;6863;306506;31
2022/07/01 11:19:18;;;;;;;0.62;0.50;;;20.50;55.00;;;;;;20700;6863;117549;31
2022/07/01 11:21:53;;;;;;;1.65;0.55;;;20.50;55.50;;;;;;20667;6863;126833;31
2022/07/01 11:24:19;;;;;;;1.53;0.50;;;20.30;56.10;;;;;;20693;6863;117580;31
2022/07/01 11:26:44;;;;;;;0.93;0.50;;;20.20;56.60;;;;;;20483;6863;308058;31
2022/07/01 11:29:10;;;;;;;0.50;0.50;;;20.40;55.30;;;;;;20692;6863;117706;31
2022/07/01 11:31:36;;;;;;;0.40;0.40;;;20.60;55.80;;;;;;20467;6863;311650;31
2022/07/01 11:34:01;;;;;;;0.50;0.50;;;20.80;54.50;;;;;;20681;6863;121507;31
2022/07/01 11:39:24;;;;;;;0.47;0.40;;;21.20;52.70;;;;;;20693;6863;118418;31
2022/07/01 11:41:56;;;;;;;0.80;0.60;;;21.20;53.90;;;;;;20449;6863;280072;31
2022/07/01 11:44:28;;;;;;;0.67;0.60;;;21.60;54.50;;;;;;20481;6862;321593;31
2022/07/01 11:46:54;;;;;;;0.55;0.55;;;22.00;52.60;;;;;;20480;6863;338155;31
2022/07/01 11:49:23;;;;;;;0.43;0.43;;;22.40;51.60;;;;;;20700;6863;117373;31
2022/07/01 11:51:46;;;;;;;0.60;0.60;;;22.40;52.10;;;;;;20658;6863;117680;31
2022/07/01 11:54:11;;;;;;;0.73;0.50;;;22.20;52.90;;;;;;20660;6863;117882;31
2022/07/01 11:56:39;;;;;;;0.60;0.50;;;22.00;53.30;;;;;;20448;6863;309476;31
2022/07/01 11:59:04;;;;;;;0.60;0.60;;;22.20;50.10;;;;;;20690;6863;117490;31
2022/07/01 12:01:29;;;;;;;0.83;0.50;;;22.20;51.10;;;;;;20478;6863;278508;31
2022/07/01 12:03:55;;;;;;;0.80;0.60;;;22.40;52.20;;;;;;20458;6863;280277;31
2022/07/01 12:06:20;;;;;;;1.30;0.60;;;22.80;49.90;;;;;;20470;6863;337168;31
2022/07/01 12:08:46;;;;;;;0.50;0.50;;;23.10;48.80;;;;;;20689;6863;117650;31
2022/07/01 12:11:11;;;;;;;0.85;0.70;;;23.00;49.60;;;;;;20468;6863;307547;31
2022/07/01 12:13:38;;;;;;;0.60;0.60;;;23.10;50.80;;;;;;20488;6863;337833;31
2022/07/01 12:16:05;;;;;;;0.93;0.83;;;23.40;49.00;;;;;;20674;6863;118118;31
2022/07/01 12:18:31;;;;;;;0.53;0.53;;;23.30;49.50;;;;;;20687;6863;119092;31
2022/07/01 12:20:56;;;;;;;0.67;0.60;;;23.10;49.90;;;;;;20691;6863;120179;31
2022/07/01 12:23:23;;;;;;;0.77;0.57;;;23.00;50.70;;;;;;20689;6863;116849;31
2022/07/01 12:25:49;;;;;;;0.97;0.80;;;22.90;50.30;;;;;;20466;6863;278101;31
2022/07/01 12:28:37;;;;;;;0.60;0.60;;;23.00;47.70;;;;;;20474;6863;296764;31
2022/07/01 12:31:03;;;;;;;1.00;0.70;;;23.40;49.00;;;;;;20471;6863;280315;31
2022/07/01 12:33:28;;;;;;;0.90;0.90;;;23.80;50.10;;;;;;20447;6863;307590;31
2022/07/01 12:35:54;;;;;;;0.60;0.60;;;24.00;46.90;;;;;;20680;6863;127437;31
2022/07/01 12:38:19;;;;;;;1.10;1.10;;;23.90;48.10;;;;;;20478;6863;308461;31
2022/07/01 12:40:45;;;;;;;0.90;0.90;;;23.80;45.90;;;;;;20686;6863;117086;31
2022/07/01 12:43:28;;;;;;;0.87;0.70;;;23.60;47.00;;;;;;20695;6863;117881;31
2022/07/01 12:45:52;;;;;;;0.60;0.57;;;23.30;47.60;;;;;;20626;6863;128725;31
2022/07/01 12:48:18;;;;;;;0.70;0.70;;;23.00;48.80;;;;;;20697;6863;117057;31
2022/07/01 12:50:46;;;;;;;0.70;0.67;;;22.80;49.10;;;;;;20682;6863;117558;31
2022/07/01 12:53:09;;;;;;;0.70;0.70;;;22.50;49.50;;;;;;20470;6863;307995;31
2022/07/01 12:55:34;;;;;;;1.40;0.95;;;22.50;48.50;;;;;;20470;6861;309004;31
2022/07/01 12:58:00;;;;;;;1.00;0.80;;;22.70;47.60;;;;;;20460;6863;308519;31
2022/07/01 13:00:27;;;;;;;1.87;1.03;;;22.80;47.50;;;;;;20686;6863;119107;31
2022/07/01 13:02:51;;;;;;;0.90;0.90;;;22.50;48.30;;;;;;20474;6863;308133;31
2022/07/01 13:05:17;;;;;;;1.03;0.60;;;22.40;48.50;;;;;;20696;6863;117006;31